createdAt,value
2019-03-28T00:02:55.499Z,8.65
2019-03-28T00:07:51.467Z,8.76
2019-03-28T00:12:48.363Z,9.30
2019-03-28T00:17:44.293Z,9.06
2019-03-28T00:22:45.165Z,8.96
2019-03-28T00:27:41.166Z,8.73
2019-03-28T00:32:37.225Z,8.53
2019-03-28T00:37:33.179Z,8.47
2019-03-28T00:42:29.095Z,8.43
2019-03-28T00:47:25.079Z,8.36
2019-03-28T00:52:21.033Z,8.32
2019-03-28T00:57:17.039Z,8.26
2019-03-28T01:02:12.981Z,8.21
2019-03-28T01:07:08.984Z,8.19
2019-03-28T01:12:04.975Z,8.20
2019-03-28T01:17:00.962Z,8.16
2019-03-28T01:21:56.985Z,8.16
2019-03-28T01:26:57.603Z,8.19
2019-03-28T01:31:51.011Z,8.18
2019-03-28T01:36:46.967Z,8.07
2019-03-28T01:41:42.924Z,8.45
2019-03-28T01:46:38.837Z,8.81
2019-03-28T01:51:34.893Z,8.63
2019-03-28T01:56:30.899Z,8.72
2019-03-28T02:01:26.831Z,8.76
2019-03-28T02:06:22.874Z,8.82
2019-03-28T02:11:18.929Z,8.57
2019-03-28T02:16:14.972Z,8.29
2019-03-28T02:21:10.960Z,8.07
2019-03-28T02:26:07.005Z,8.02
2019-03-28T02:31:03.041Z,7.93
2019-03-28T02:35:59.061Z,8.11
2019-03-28T02:40:55.118Z,7.90
2019-03-28T02:45:52.462Z,7.99
2019-03-28T02:50:48.429Z,7.81
2019-03-28T02:55:44.549Z,7.80
2019-03-28T03:00:41.626Z,8.10
2019-03-28T03:05:38.334Z,8.17
2019-03-28T03:10:34.814Z,7.87
2019-03-28T03:15:31.334Z,7.79
2019-03-28T03:20:27.327Z,7.82
2019-03-28T03:25:23.465Z,7.82
2019-03-28T03:30:19.528Z,7.84
2019-03-28T03:35:16.538Z,8.33
2019-03-28T03:40:14.464Z,7.85
2019-03-28T03:45:10.451Z,7.88
2019-03-28T03:50:06.737Z,8.43
2019-03-28T03:55:05.122Z,8.78
2019-03-28T04:00:01.017Z,8.74
2019-03-28T04:04:57.058Z,8.69
2019-03-28T04:09:53.044Z,8.66
2019-03-28T04:14:48.952Z,8.32
2019-03-28T04:19:44.883Z,8.25
2019-03-28T04:24:41.480Z,8.13
2019-03-28T04:29:37.378Z,8.74
2019-03-28T04:34:33.310Z,8.34
2019-03-28T04:39:29.327Z,8.27
2019-03-28T04:44:25.243Z,8.73
2019-03-28T04:49:21.159Z,8.25
2019-03-28T04:54:19.582Z,8.86
2019-03-28T04:59:15.641Z,8.89
2019-03-28T05:04:11.549Z,8.80
2019-03-28T05:09:07.459Z,8.85
2019-03-28T05:14:03.372Z,8.57
2019-03-28T05:18:59.993Z,8.51
2019-03-28T05:23:56.797Z,8.45
2019-03-28T05:28:58.016Z,8.48
2019-03-28T05:33:57.086Z,8.62
2019-03-28T05:38:54.315Z,8.01
2019-03-28T05:43:51.601Z,7.85
2019-03-28T05:48:50.819Z,7.99
2019-03-28T05:53:48.834Z,8.02
2019-03-28T05:58:45.520Z,7.95
2019-03-28T06:03:42.470Z,8.11
2019-03-28T06:08:39.872Z,8.14
2019-03-28T06:13:36.965Z,8.20
2019-03-28T06:18:35.032Z,8.20
2019-03-28T06:23:32.325Z,8.20
2019-03-28T06:28:29.122Z,8.61
2019-03-28T06:33:25.732Z,9.04
2019-03-28T06:38:27.470Z,9.21
2019-03-28T06:43:24.290Z,9.28
2019-03-28T06:48:22.136Z,9.28
2019-03-28T06:53:19.057Z,9.23
2019-03-28T06:58:17.068Z,9.34
2019-03-28T07:03:15.128Z,9.07
2019-03-28T07:08:12.847Z,9.11
2019-03-28T07:13:10.335Z,8.92
2019-03-28T07:18:07.067Z,9.15
2019-03-28T07:23:03.463Z,9.07
2019-03-28T07:28:00.133Z,9.21
2019-03-28T07:32:56.672Z,9.36
2019-03-28T07:37:53.088Z,9.37
2019-03-28T07:42:50.558Z,9.58
2019-03-28T07:47:47.126Z,9.57
2019-03-28T07:52:48.302Z,9.63
2019-03-28T07:57:44.951Z,9.73
2019-03-28T08:02:41.803Z,10.46
2019-03-28T08:07:45.067Z,10.76
2019-03-28T08:12:37.059Z,10.72
2019-03-28T08:17:34.309Z,10.86
2019-03-28T08:22:32.942Z,10.66
2019-03-28T08:27:31.310Z,10.48
2019-03-28T08:32:28.499Z,10.36
2019-03-28T08:37:25.544Z,10.55
2019-03-28T08:42:22.370Z,11.01
2019-03-28T08:47:21.098Z,10.38
2019-03-28T08:52:17.564Z,11.07
2019-03-28T08:57:14.661Z,12.00
2019-03-28T09:02:11.276Z,11.41
2019-03-28T09:07:07.853Z,11.39
2019-03-28T09:12:04.481Z,11.23
2019-03-28T09:17:01.061Z,11.14
2019-03-28T09:21:59.607Z,11.35
2019-03-28T09:26:59.675Z,11.65
2019-03-28T09:31:57.540Z,12.46
2019-03-28T09:36:54.380Z,11.99
2019-03-28T09:41:54.407Z,11.58
2019-03-28T09:46:51.097Z,11.69
2019-03-28T09:51:47.865Z,11.80
2019-03-28T09:56:47.303Z,11.73
2019-03-28T10:01:43.962Z,11.74
2019-03-28T10:06:40.632Z,12.30
2019-03-28T10:11:37.225Z,12.32
2019-03-28T10:16:35.652Z,12.29
2019-03-28T10:21:32.597Z,12.63
2019-03-28T10:26:30.615Z,12.41
2019-03-28T10:31:27.598Z,12.14
2019-03-28T10:36:27.592Z,12.40
2019-03-28T10:41:25.693Z,12.28
2019-03-28T10:46:21.351Z,12.15
2019-03-28T10:51:18.144Z,12.19
2019-03-28T10:56:21.900Z,12.23
2019-03-28T11:01:16.507Z,12.16
2019-03-28T11:06:12.199Z,12.42
2019-03-28T11:11:08.968Z,12.18
2019-03-28T11:16:05.881Z,12.13
2019-03-28T11:21:03.247Z,11.94
2019-03-28T11:26:00.078Z,11.94
2019-03-28T11:30:56.548Z,12.02
2019-03-28T11:35:53.019Z,11.93
2019-03-28T11:40:49.916Z,12.06
2019-03-28T11:45:46.618Z,12.28
2019-03-28T11:50:42.627Z,12.02
2019-03-28T11:55:38.604Z,12.11
2019-03-28T12:00:34.613Z,12.20
2019-03-28T12:05:30.570Z,12.07
2019-03-28T12:10:26.458Z,12.14
2019-03-28T12:15:22.375Z,11.95
2019-03-28T12:20:18.288Z,11.96
2019-03-28T12:25:14.202Z,11.98
2019-03-28T12:30:11.832Z,12.24
2019-03-28T12:35:08.845Z,12.27
2019-03-28T12:40:05.859Z,12.32
2019-03-28T12:45:03.775Z,12.09
2019-03-28T12:49:59.699Z,12.17
2019-03-28T12:54:56.342Z,12.11
2019-03-28T12:59:53.689Z,12.28
2019-03-28T13:04:49.872Z,12.28
2019-03-28T13:09:45.788Z,12.19
2019-03-28T13:14:41.708Z,12.33
2019-03-28T13:19:37.620Z,12.18
2019-03-28T13:24:34.248Z,12.34
2019-03-28T13:29:30.355Z,12.55
2019-03-28T13:34:26.938Z,12.55
2019-03-28T13:39:23.086Z,12.75
2019-03-28T13:44:19.015Z,12.71
2019-03-28T13:49:15.015Z,12.44
2019-03-28T13:54:17.662Z,12.25
2019-03-28T13:59:13.691Z,12.32
2019-03-28T14:04:09.601Z,12.41
2019-03-28T14:09:06.114Z,12.34
2019-03-28T14:14:02.039Z,12.21
2019-03-28T14:18:57.921Z,12.25
2019-03-28T14:23:53.913Z,12.39
2019-03-28T14:28:50.423Z,12.27
2019-03-28T14:33:46.575Z,12.22
2019-03-28T14:38:42.485Z,12.32
2019-03-28T14:43:38.414Z,12.50
2019-03-28T14:48:34.495Z,12.75
2019-03-28T14:53:30.446Z,13.05
2019-03-28T14:58:26.784Z,12.94
2019-03-28T15:03:27.239Z,12.98
2019-03-28T15:08:22.131Z,12.68
2019-03-28T15:13:18.068Z,12.54
2019-03-28T15:18:17.804Z,12.55
2019-03-28T15:23:16.264Z,12.68
2019-03-28T15:28:15.301Z,13.04
2019-03-28T15:33:12.005Z,12.57
2019-03-28T15:38:11.652Z,12.80
2019-03-28T15:43:07.710Z,12.74
2019-03-28T15:48:03.736Z,12.98
2019-03-28T15:52:59.705Z,13.04
2019-03-28T15:57:55.673Z,12.98
2019-03-28T16:02:51.590Z,13.33
2019-03-28T16:07:47.830Z,12.98
2019-03-28T16:12:44.473Z,12.87
2019-03-28T16:17:40.484Z,12.96
2019-03-28T16:22:37.708Z,13.19
2019-03-28T16:27:33.884Z,12.98
2019-03-28T16:32:29.795Z,12.74
2019-03-28T16:37:25.726Z,12.83
2019-03-28T16:42:21.636Z,12.74
2019-03-28T16:47:17.548Z,12.41
2019-03-28T16:52:13.490Z,12.67
2019-03-28T16:57:09.427Z,12.75
2019-03-28T17:02:05.339Z,12.59
2019-03-28T17:07:01.263Z,12.70
2019-03-28T17:11:57.173Z,12.64
2019-03-28T17:16:53.097Z,12.41
2019-03-28T17:21:49.053Z,12.48
2019-03-28T17:26:45.035Z,12.41
2019-03-28T17:31:40.948Z,12.29
2019-03-28T17:36:37.026Z,12.39
2019-03-28T17:41:35.672Z,12.28
2019-03-28T17:46:32.563Z,12.43
2019-03-28T17:51:28.539Z,12.29
2019-03-28T17:56:24.461Z,12.06
2019-03-28T18:01:20.483Z,12.12
2019-03-28T18:06:16.410Z,11.70
2019-03-28T18:11:12.302Z,11.43
2019-03-28T18:16:09.820Z,11.36
2019-03-28T18:21:05.731Z,11.34
2019-03-28T18:26:02.124Z,12.17
2019-03-28T18:30:58.031Z,12.15
2019-03-28T18:35:53.949Z,11.95
2019-03-28T18:40:49.880Z,11.46
2019-03-28T18:45:45.792Z,11.26
2019-03-28T18:50:41.811Z,11.10
2019-03-28T18:55:38.498Z,10.94
2019-03-28T19:00:34.490Z,10.88
2019-03-28T19:05:30.426Z,10.83
2019-03-28T19:10:26.333Z,10.73
2019-03-28T19:15:22.304Z,10.50
2019-03-28T19:20:18.367Z,10.35
2019-03-28T19:25:16.316Z,10.27
2019-03-28T19:30:12.874Z,10.13
2019-03-28T19:35:09.153Z,11.01
2019-03-28T19:40:08.429Z,10.95
2019-03-28T19:45:04.944Z,10.34
2019-03-28T19:50:00.962Z,9.99
2019-03-28T19:55:03.077Z,10.17
2019-03-28T19:59:59.207Z,10.25
2019-03-28T20:04:55.312Z,10.11
2019-03-28T20:09:51.230Z,10.09
2019-03-28T20:14:48.418Z,10.03
2019-03-28T20:19:44.381Z,9.94
2019-03-28T20:24:45.063Z,9.74
2019-03-28T20:29:42.406Z,9.70
2019-03-28T20:34:38.431Z,9.66
2019-03-28T20:39:34.379Z,9.60
2019-03-28T20:44:30.290Z,9.80
2019-03-28T20:49:26.306Z,10.19
2019-03-28T20:54:25.036Z,9.98
2019-03-28T20:59:21.198Z,10.18
2019-03-28T21:04:30.275Z,10.27
2019-03-28T21:09:14.927Z,9.77
2019-03-28T21:14:10.847Z,9.87
2019-03-28T21:19:06.757Z,9.58
2019-03-28T21:24:10.506Z,9.72
2019-03-28T21:29:06.453Z,9.83
2019-03-28T21:34:02.467Z,10.13
2019-03-28T21:38:58.382Z,9.73
2019-03-28T21:43:54.290Z,9.82
2019-03-28T21:48:50.216Z,9.92
2019-03-28T21:53:46.967Z,9.67
2019-03-28T21:58:43.002Z,9.96
2019-03-28T22:03:39.995Z,9.59
2019-03-28T22:08:36.048Z,9.54
2019-03-28T22:13:31.959Z,9.43
2019-03-28T22:18:27.884Z,9.88
2019-03-28T22:23:23.956Z,9.51
2019-03-28T22:28:19.859Z,9.38
2019-03-28T22:33:15.907Z,9.34
2019-03-28T22:38:12.032Z,9.28
2019-03-28T22:43:07.950Z,9.70
2019-03-28T22:48:10.740Z,9.93
2019-03-28T22:53:01.818Z,9.74
2019-03-28T22:57:57.761Z,9.36
2019-03-28T23:02:54.848Z,9.38
2019-03-28T23:07:51.000Z,9.17
2019-03-28T23:12:46.987Z,9.45
2019-03-28T23:17:42.903Z,9.20
2019-03-28T23:22:38.819Z,9.40
2019-03-28T23:27:34.729Z,9.38
2019-03-28T23:32:30.725Z,10.01
2019-03-28T23:37:26.912Z,9.45
2019-03-28T23:42:23.085Z,9.45
2019-03-28T23:47:18.996Z,10.03
2019-03-28T23:52:14.981Z,9.28
2019-03-28T23:57:10.923Z,8.91
